sensor_id;sensor_type;location;lat;lon;timestamp;pressure;altitude;pressure_sealevel;temperature;humidity
49451;BME280;35336;48.400;10.886;2023-07-29T00:00:05;95962.63;;;16.34;100.00
49451;BME280;35336;48.400;10.886;2023-07-29T00:00:20;95969.63;;;16.35;100.00
49451;BME280;35336;48.400;10.886;2023-07-29T00:00:36;95971.78;;;16.33;100.00
49451;BME280;35336;48.400;10.886;2023-07-29T00:00:51;95962.41;;;16.35;100.00
49451;BME280;35336;48.400;10.886;2023-07-29T00:01:09;95966.41;;;16.33;100.00
49451;BME280;35336;48.400;10.886;2023-07-29T00:01:24;95968.00;;;16.34;100.00
49451;BME280;35336;48.400;10.886;2023-07-29T00:01:40;95973.97;;;16.36;100.00
49451;BME280;35336;48.400;10.886;2023-07-29T00:01:55;95974.22;;;16.34;100.00
49451;BME280;35336;48.400;10.886;2023-07-29T00:02:13;95975.84;;;16.35;100.00
49451;BME280;35336;48.400;10.886;2023-07-29T00:02:28;95973.16;;;16.35;100.00
49451;BME280;35336;48.400;10.886;2023-07-29T00:02:47;95975.03;;;16.35;100.00
49451;BME280;35336;48.400;10.886;2023-07-29T00:03:02;95973.38;;;16.34;100.00
49451;BME280;35336;48.400;10.886;2023-07-29T00:03:17;95971.19;;;16.31;100.00
49451;BME280;35336;48.400;10.886;2023-07-29T00:03:32;95974.69;;;16.31;100.00
49451;BME280;35336;48.400;10.886;2023-07-29T00:03:50;95974.22;;;16.34;100.00
49451;BME280;35336;48.400;10.886;2023-07-29T00:04:05;95967.91;;;16.29;100.00
49451;BME280;35336;48.400;10.886;2023-07-29T00:04:21;95969.56;;;16.30;100.00
49451;BME280;35336;48.400;10.886;2023-07-29T00:04:36;95964.91;;;16.25;100.00
49451;BME280;35336;48.400;10.886;2023-07-29T00:04:51;95970.63;;;16.29;100.00
49451;BME280;35336;48.400;10.886;2023-07-29T00:05:07;95971.78;;;16.33;100.00
49451;BME280;35336;48.400;10.886;2023-07-29T00:05:22;95975.03;;;16.35;100.00
49451;BME280;35336;48.400;10.886;2023-07-29T00:05:38;95970.94;;;16.32;100.00
49451;BME280;35336;48.400;10.886;2023-07-29T00:05:53;95976.06;;;16.34;100.00
49451;BME280;35336;48.400;10.886;2023-07-29T00:06:09;95967.66;;;16.30;100.00
49451;BME280;35336;48.400;10.886;2023-07-29T00:06:24;95978.22;;;16.32;100.00
49451;BME280;35336;48.400;10.886;2023-07-29T00:06:42;95972.56;;;16.33;100.00
49451;BME280;35336;48.400;10.886;2023-07-29T00:06:57;95975.53;;;16.32;100.00
49451;BME280;35336;48.400;10.886;2023-07-29T00:07:15;95973.88;;;16.31;100.00
49451;BME280;35336;48.400;10.886;2023-07-29T00:07:30;95969.31;;;16.31;100.00
49451;BME280;35336;48.400;10.886;2023-07-29T00:07:48;95959.78;;;16.24;100.00
49451;BME280;35336;48.400;10.886;2023-07-29T00:08:03;95961.88;;;16.22;100.00
49451;BME280;35336;48.400;10.886;2023-07-29T00:08:19;95964.56;;;16.22;100.00
49451;BME280;35336;48.400;10.886;2023-07-29T00:08:36;95958.38;;;16.21;100.00
49451;BME280;35336;48.400;10.886;2023-07-29T00:08:51;95972.50;;;16.28;100.00
49451;BME280;35336;48.400;10.886;2023-07-29T00:09:07;95979.72;;;16.28;100.00
49451;BME280;35336;48.400;10.886;2023-07-29T00:09:24;95966.53;;;16.26;100.00
49451;BME280;35336;48.400;10.886;2023-07-29T00:09:42;95977.88;;;16.28;100.00
49451;BME280;35336;48.400;10.886;2023-07-29T00:09:59;95964.91;;;16.25;100.00
49451;BME280;35336;48.400;10.886;2023-07-29T00:10:14;95956.75;;;16.20;100.00
49451;BME280;35336;48.400;10.886;2023-07-29T00:10:36;95968.97;;;16.28;100.00
49451;BME280;35336;48.400;10.886;2023-07-29T00:10:54;95970.63;;;16.29;100.00
49451;BME280;35336;48.400;10.886;2023-07-29T00:11:09;95967.13;;;16.28;100.00
49451;BME280;35336;48.400;10.886;2023-07-29T00:11:25;95962.47;;;16.24;100.00
49451;BME280;35336;48.400;10.886;2023-07-29T00:11:40;95965.72;;;16.26;100.00
49451;BME280;35336;48.400;10.886;2023-07-29T00:11:55;95979.72;;;16.28;100.00
49451;BME280;35336;48.400;10.886;2023-07-29T00:12:11;95954.84;;;16.20;100.00
49451;BME280;35336;48.400;10.886;2023-07-29T00:12:26;95968.97;;;16.28;100.00
49451;BME280;35336;48.400;10.886;2023-07-29T00:12:41;95974.94;;;16.30;100.00
49451;BME280;35336;48.400;10.886;2023-07-29T00:12:59;95973.31;;;16.29;100.00
49451;BME280;35336;48.400;10.886;2023-07-29T00:13:19;95969.56;;;16.30;100.00
49451;BME280;35336;48.400;10.886;2023-07-29T00:13:37;95953.81;;;16.22;100.00
49451;BME280;35336;48.400;10.886;2023-07-29T00:13:52;95960.81;;;16.23;100.00
49451;BME280;35336;48.400;10.886;2023-07-29T00:14:07;95953.56;;;16.23;100.00
49451;BME280;35336;48.400;10.886;2023-07-29T00:14:23;95975.53;;;16.32;100.00
49451;BME280;35336;48.400;10.886;2023-07-29T00:14:38;95975.59;;;16.37;100.00
49451;BME280;35336;48.400;10.886;2023-07-29T00:14:56;95960.50;;;16.36;100.00
49451;BME280;35336;48.400;10.886;2023-07-29T00:15:11;95970.47;;;16.35;100.00
49451;BME280;35336;48.400;10.886;2023-07-29T00:15:27;95961.81;;;16.33;100.00
49451;BME280;35336;48.400;10.886;2023-07-29T00:15:44;95950.66;;;16.25;100.00
49451;BME280;35336;48.400;10.886;2023-07-29T00:15:59;95965.09;;;16.35;100.00
49451;BME280;35336;48.400;10.886;2023-07-29T00:16:17;95958.88;;;16.35;100.00
49451;BME280;35336;48.400;10.886;2023-07-29T00:16:32;95944.75;;;16.28;100.00
49451;BME280;35336;48.400;10.886;2023-07-29T00:16:47;95963.72;;;16.33;100.00
49451;BME280;35336;48.400;10.886;2023-07-29T00:17:03;95969.09;;;16.33;100.00
49451;BME280;35336;48.400;10.886;2023-07-29T00:17:18;95965.56;;;16.32;100.00
49451;BME280;35336;48.400;10.886;2023-07-29T00:17:33;95961.25;;;16.31;100.00
49451;BME280;35336;48.400;10.886;2023-07-29T00:17:49;95961.50;;;16.30;100.00
49451;BME280;35336;48.400;10.886;2023-07-29T00:18:06;95970.63;;;16.29;100.00
49451;BME280;35336;48.400;10.886;2023-07-29T00:18:22;95961.75;;;16.28;100.00
49451;BME280;35336;48.400;10.886;2023-07-29T00:18:37;95964.66;;;16.27;100.00
49451;BME280;35336;48.400;10.886;2023-07-29T00:18:55;95965.47;;;16.27;100.00
49451;BME280;35336;48.400;10.886;2023-07-29T00:19:13;95971.13;;;16.26;100.00
49451;BME280;35336;48.400;10.886;2023-07-29T00:19:28;95956.34;;;16.11;100.00
49451;BME280;35336;48.400;10.886;2023-07-29T00:19:43;95969.47;;;16.25;100.00
49451;BME280;35336;48.400;10.886;2023-07-29T00:19:59;95960.50;;;16.19;100.00
49451;BME280;35336;48.400;10.886;2023-07-29T00:20:16;95971.59;;;16.23;100.00
49451;BME280;35336;48.400;10.886;2023-07-29T00:20:32;95965.63;;;16.20;100.00
49451;BME280;35336;48.400;10.886;2023-07-29T00:20:47;95968.09;;;16.22;100.00
49451;BME280;35336;48.400;10.886;2023-07-29T00:21:02;95964.56;;;16.22;100.00
49451;BME280;35336;48.400;10.886;2023-07-29T00:21:20;95970.78;;;16.22;100.00
49451;BME280;35336;48.400;10.886;2023-07-29T00:21:37;95967.00;;;16.23;100.00
49451;BME280;35336;48.400;10.886;2023-07-29T00:21:53;95965.16;;;16.24;100.00
49451;BME280;35336;48.400;10.886;2023-07-29T00:22:08;95962.38;;;16.18;100.00
49451;BME280;35336;48.400;10.886;2023-07-29T00:22:23;95970.53;;;16.24;100.00
49451;BME280;35336;48.400;10.886;2023-07-29T00:22:43;95963.25;;;16.24;100.00
49451;BME280;35336;48.400;10.886;2023-07-29T00:22:58;95963.25;;;16.24;100.00
49451;BME280;35336;48.400;10.886;2023-07-29T00:23:13;95972.38;;;16.23;100.00
49451;BME280;35336;48.400;10.886;2023-07-29T00:23:31;95954.19;;;16.13;100.00
49451;BME280;35336;48.400;10.886;2023-07-29T00:23:46;95957.13;;;16.12;100.00
49451;BME280;35336;48.400;10.886;2023-07-29T00:24:01;95961.88;;;16.22;100.00
49451;BME280;35336;48.400;10.886;2023-07-29T00:24:19;95953.13;;;16.14;100.00
49451;BME280;35336;48.400;10.886;2023-07-29T00:24:39;95967.84;;;16.24;100.00
49451;BME280;35336;48.400;10.886;2023-07-29T00:24:54;95959.91;;;16.17;100.00
49451;BME280;35336;48.400;10.886;2023-07-29T00:25:12;95960.16;;;16.15;100.00
49451;BME280;35336;48.400;10.886;2023-07-29T00:25:29;95959.69;;;16.18;100.00
49451;BME280;35336;48.400;10.886;2023-07-29T00:25:45;95963.75;;;16.21;100.00
49451;BME280;35336;48.400;10.886;2023-07-29T00:26:00;95969.94;;;16.22;100.00
49451;BME280;35336;48.400;10.886;2023-07-29T00:26:16;95954.19;;;16.13;100.00
49451;BME280;35336;48.400;10.886;2023-07-29T00:26:31;95962.72;;;16.22;100.00
49451;BME280;35336;48.400;10.886;2023-07-29T00:26:46;95966.44;;;16.21;100.00
49451;BME280;35336;48.400;10.886;2023-07-29T00:27:04;95968.31;;;16.20;100.00
49451;BME280;35336;48.400;10.886;2023-07-29T00:27:22;95967.50;;;16.20;100.00
49451;BME280;35336;48.400;10.886;2023-07-29T00:27:37;95962.94;;;16.20;100.00
49451;BME280;35336;48.400;10.886;2023-07-29T00:27:57;95967.50;;;16.20;100.00
49451;BME280;35336;48.400;10.886;2023-07-29T00:28:15;95969.94;;;16.22;100.00
49451;BME280;35336;48.400;10.886;2023-07-29T00:28:30;95959.44;;;16.20;100.00
49451;BME280;35336;48.400;10.886;2023-07-29T00:28:46;95958.84;;;16.18;100.00
49451;BME280;35336;48.400;10.886;2023-07-29T00:29:01;95964.56;;;16.22;100.00
49451;BME280;35336;48.400;10.886;2023-07-29T00:29:16;95967.25;;;16.22;100.00
49451;BME280;35336;48.400;10.886;2023-07-29T00:29:31;95956.41;;;16.16;100.00
49451;BME280;35336;48.400;10.886;2023-07-29T00:29:47;95953.47;;;16.18;100.00
49451;BME280;35336;48.400;10.886;2023-07-29T00:30:05;95961.28;;;16.19;100.00
49451;BME280;35336;48.400;10.886;2023-07-29T00:30:23;95958.06;;;16.17;100.00
49451;BME280;35336;48.400;10.886;2023-07-29T00:30:38;95960.50;;;16.19;100.00
49451;BME280;35336;48.400;10.886;2023-07-29T00:30:53;95943.09;;;16.10;100.00
49451;BME280;35336;48.400;10.886;2023-07-29T00:31:11;95953.47;;;16.18;100.00
49451;BME280;35336;48.400;10.886;2023-07-29T00:31:26;95951.63;;;16.18;100.00
49451;BME280;35336;48.400;10.886;2023-07-29T00:31:44;95949.66;;;16.14;100.00
49451;BME280;35336;48.400;10.886;2023-07-29T00:32:01;95964.22;;;16.18;100.00
49451;BME280;35336;48.400;10.886;2023-07-29T00:32:17;95954.78;;;16.15;100.00
49451;BME280;35336;48.400;10.886;2023-07-29T00:32:35;95955.84;;;16.14;100.00
49451;BME280;35336;48.400;10.886;2023-07-29T00:32:52;95957.22;;;16.17;100.00
49451;BME280;35336;48.400;10.886;2023-07-29T00:33:10;95960.16;;;16.15;100.00
49451;BME280;35336;48.400;10.886;2023-07-29T00:33:25;95956.41;;;16.16;100.00
49451;BME280;35336;48.400;10.886;2023-07-29T00:33:40;95956.16;;;16.18;100.00
49451;BME280;35336;48.400;10.886;2023-07-29T00:33:55;95947.69;;;16.09;100.00
49451;BME280;35336;48.400;10.886;2023-07-29T00:34:11;95954.78;;;16.15;100.00
49451;BME280;35336;48.400;10.886;2023-07-29T00:34:26;95960.41;;;16.14;100.00
49451;BME280;35336;48.400;10.886;2023-07-29T00:34:41;95943.34;;;16.08;100.00
49451;BME280;35336;48.400;10.886;2023-07-29T00:35:01;95960.63;;;16.12;100.00
49451;BME280;35336;48.400;10.886;2023-07-29T00:35:19;95932.97;;;16.00;100.00
49451;BME280;35336;48.400;10.886;2023-07-29T00:35:34;95954.91;;;16.09;100.00
49451;BME280;35336;48.400;10.886;2023-07-29T00:35:50;95940.31;;;16.04;100.00
49451;BME280;35336;48.400;10.886;2023-07-29T00:36:05;95953.06;;;16.09;100.00
49451;BME280;35336;48.400;10.886;2023-07-29T00:36:22;95946.50;;;16.05;100.00
49451;BME280;35336;48.400;10.886;2023-07-29T00:36:38;95943.81;;;16.05;100.00
49451;BME280;35336;48.400;10.886;2023-07-29T00:36:55;95952.47;;;16.07;100.00
49451;BME280;35336;48.400;10.886;2023-07-29T00:37:11;95951.41;;;16.08;100.00
49451;BME280;35336;48.400;10.886;2023-07-29T00:37:27;95950.03;;;16.06;100.00
49451;BME280;35336;48.400;10.886;2023-07-29T00:37:47;95955.16;;;16.07;100.00
49451;BME280;35336;48.400;10.886;2023-07-29T00:38:02;95952.22;;;16.09;100.00
49451;BME280;35336;48.400;10.886;2023-07-29T00:38:18;95959.50;;;16.08;100.00
49451;BME280;35336;48.400;10.886;2023-07-29T00:38:33;95951.16;;;16.10;100.00
49451;BME280;35336;48.400;10.886;2023-07-29T00:38:52;95954.09;;;16.08;100.00
49451;BME280;35336;48.400;10.886;2023-07-29T00:39:08;95948.72;;;16.08;100.00
49451;BME280;35336;48.400;10.886;2023-07-29T00:39:25;95961.38;;;16.08;100.00
49451;BME280;35336;48.400;10.886;2023-07-29T00:39:40;95951.41;;;16.08;100.00
49451;BME280;35336;48.400;10.886;2023-07-29T00:39:57;95957.06;;;16.07;100.00
49451;BME280;35336;48.400;10.886;2023-07-29T00:40:19;95959.50;;;16.08;100.00
49451;BME280;35336;48.400;10.886;2023-07-29T00:40:35;95960.28;;;16.09;100.00
49451;BME280;35336;48.400;10.886;2023-07-29T00:40:51;95941.03;;;16.00;100.00
49451;BME280;35336;48.400;10.886;2023-07-29T00:41:06;95938.34;;;16.00;100.00
49451;BME280;35336;48.400;10.886;2023-07-29T00:41:22;95948.16;;;16.06;100.00
49451;BME280;35336;48.400;10.886;2023-07-29T00:41:37;95944.44;;;15.95;100.00
49451;BME280;35336;48.400;10.886;2023-07-29T00:41:53;95956.22;;;16.06;100.00
49451;BME280;35336;48.400;10.886;2023-07-29T00:42:10;95954.56;;;16.05;100.00
49451;BME280;35336;48.400;10.886;2023-07-29T00:42:28;95953.44;;;16.01;100.00
49451;BME280;35336;48.400;10.886;2023-07-29T00:42:43;95946.34;;;15.95;100.00
49451;BME280;35336;48.400;10.886;2023-07-29T00:43:01;95952.38;;;16.02;100.00
49451;BME280;35336;48.400;10.886;2023-07-29T00:43:16;95950.16;;;15.99;100.00
49451;BME280;35336;48.400;10.886;2023-07-29T00:43:31;95949.69;;;16.02;100.00
49451;BME280;35336;48.400;10.886;2023-07-29T00:43:47;95949.44;;;16.03;100.00
49451;BME280;35336;48.400;10.886;2023-07-29T00:44:04;95946.44;;;16.00;100.00
49451;BME280;35336;48.400;10.886;2023-07-29T00:44:19;95949.44;;;16.03;100.00
49451;BME280;35336;48.400;10.886;2023-07-29T00:44:35;95945.97;;;16.03;100.00
49451;BME280;35336;48.400;10.886;2023-07-29T00:44:50;95954.56;;;16.05;100.00
49451;BME280;35336;48.400;10.886;2023-07-29T00:45:06;95944.91;;;16.04;100.00
49451;BME280;35336;48.400;10.886;2023-07-29T00:45:23;95953.44;;;16.01;100.00
49451;BME280;35336;48.400;10.886;2023-07-29T00:45:41;95939.31;;;15.94;100.00
49451;BME280;35336;48.400;10.886;2023-07-29T00:45:59;95949.13;;;16.00;100.00
49451;BME280;35336;48.400;10.886;2023-07-29T00:46:14;95939.56;;;15.92;100.00
49451;BME280;35336;48.400;10.886;2023-07-29T00:46:33;95949.13;;;16.00;100.00
49451;BME280;35336;48.400;10.886;2023-07-29T00:46:53;95947.72;;;15.97;100.00
49451;BME280;35336;48.400;10.886;2023-07-29T00:47:10;95941.28;;;15.98;100.00
49451;BME280;35336;48.400;10.886;2023-07-29T00:47:31;95948.06;;;16.01;100.00
49451;BME280;35336;48.400;10.886;2023-07-29T00:47:46;95951.00;;;15.99;100.00
49451;BME280;35336;48.400;10.886;2023-07-29T00:48:03;95952.63;;;16.00;100.00
49451;BME280;35336;48.400;10.886;2023-07-29T00:48:19;95936.06;;;15.92;100.00
49451;BME280;35336;48.400;10.886;2023-07-29T00:48:34;95947.47;;;15.99;100.00
49451;BME280;35336;48.400;10.886;2023-07-29T00:48:50;95947.47;;;15.99;100.00
49451;BME280;35336;48.400;10.886;2023-07-29T00:49:05;95950.16;;;15.99;100.00
49451;BME280;35336;48.400;10.886;2023-07-29T00:49:22;95934.41;;;15.91;100.00
49451;BME280;35336;48.400;10.886;2023-07-29T00:49:38;95949.63;;;15.97;100.00
49451;BME280;35336;48.400;10.886;2023-07-29T00:49:53;95951.22;;;15.98;100.00
49451;BME280;35336;48.400;10.886;2023-07-29T00:50:13;95946.94;;;15.97;100.00
49451;BME280;35336;48.400;10.886;2023-07-29T00:50:28;95947.72;;;15.97;100.00
49451;BME280;35336;48.400;10.886;2023-07-29T00:50:46;95945.84;;;15.98;100.00
49451;BME280;35336;48.400;10.886;2023-07-29T00:51:01;95940.63;;;15.91;100.00
49451;BME280;35336;48.400;10.886;2023-07-29T00:51:16;95945.50;;;15.94;100.00
49451;BME280;35336;48.400;10.886;2023-07-29T00:51:34;95950.66;;;15.96;100.00
49451;BME280;35336;48.400;10.886;2023-07-29T00:51:51;95951.72;;;15.95;100.00
49451;BME280;35336;48.400;10.886;2023-07-29T00:52:09;95945.75;;;15.93;100.00
49451;BME280;35336;48.400;10.886;2023-07-29T00:52:27;95948.78;;;15.96;100.00
49451;BME280;35336;48.400;10.886;2023-07-29T00:52:43;95946.34;;;15.95;100.00
49451;BME280;35336;48.400;10.886;2023-07-29T00:52:58;95933.53;;;15.85;100.00
49451;BME280;35336;48.400;10.886;2023-07-29T00:53:14;95942.16;;;15.87;100.00
49451;BME280;35336;48.400;10.886;2023-07-29T00:53:33;95951.97;;;15.93;100.00
49451;BME280;35336;48.400;10.886;2023-07-29T00:53:49;95948.44;;;15.93;100.00
49451;BME280;35336;48.400;10.886;2023-07-29T00:54:04;95934.56;;;15.84;100.00
49451;BME280;35336;48.400;10.886;2023-07-29T00:54:19;95951.13;;;15.93;100.00
49451;BME280;35336;48.400;10.886;2023-07-29T00:54:35;95946.00;;;15.91;100.00
49451;BME280;35336;48.400;10.886;2023-07-29T00:54:50;95947.63;;;15.92;100.00
49451;BME280;35336;48.400;10.886;2023-07-29T00:55:06;95941.69;;;15.90;100.00
49451;BME280;35336;48.400;10.886;2023-07-29T00:55:24;95937.00;;;15.85;100.00
49451;BME280;35336;48.400;10.886;2023-07-29T00:55:42;95947.84;;;15.91;100.00
49451;BME280;35336;48.400;10.886;2023-07-29T00:55:58;95942.47;;;15.91;100.00
49451;BME280;35336;48.400;10.886;2023-07-29T00:56:13;95940.03;;;15.89;100.00
49451;BME280;35336;48.400;10.886;2023-07-29T00:56:28;95942.47;;;15.91;100.00
49451;BME280;35336;48.400;10.886;2023-07-29T00:56:44;95942.00;;;15.94;100.00
49451;BME280;35336;48.400;10.886;2023-07-29T00:56:59;95937.00;;;15.85;100.00
49451;BME280;35336;48.400;10.886;2023-07-29T00:57:15;95939.78;;;15.91;100.00
49451;BME280;35336;48.400;10.886;2023-07-29T00:57:32;95946.81;;;15.92;100.00
49451;BME280;35336;48.400;10.886;2023-07-29T00:57:47;95944.13;;;15.92;100.00
49451;BME280;35336;48.400;10.886;2023-07-29T00:58:03;95932.06;;;15.82;100.00
49451;BME280;35336;48.400;10.886;2023-07-29T00:58:19;95931.06;;;15.83;100.00
49451;BME280;35336;48.400;10.886;2023-07-29T00:58:34;95943.56;;;15.90;100.00
49451;BME280;35336;48.400;10.886;2023-07-29T00:58:50;95939.25;;;15.88;100.00
49451;BME280;35336;48.400;10.886;2023-07-29T00:59:05;95942.16;;;15.87;100.00
49451;BME280;35336;48.400;10.886;2023-07-29T00:59:21;95940.53;;;15.86;100.00
49451;BME280;35336;48.400;10.886;2023-07-29T00:59:37;95939.69;;;15.85;100.00
49451;BME280;35336;48.400;10.886;2023-07-29T00:59:52;95940.75;;;15.84;100.00
49451;BME280;35336;48.400;10.886;2023-07-29T01:00:12;95943.44;;;15.84;100.00
49451;BME280;35336;48.400;10.886;2023-07-29T01:00:32;95942.41;;;15.85;100.00
49451;BME280;35336;48.400;10.886;2023-07-29T01:00:47;95946.38;;;15.83;100.00
49451;BME280;35336;48.400;10.886;2023-07-29T01:01:03;95943.69;;;15.83;100.00
49451;BME280;35336;48.400;10.886;2023-07-29T01:01:23;95924.41;;;15.74;100.00
49451;BME280;35336;48.400;10.886;2023-07-29T01:01:38;95937.94;;;15.79;100.00
49451;BME280;35336;48.400;10.886;2023-07-29T01:01:56;95920.56;;;15.70;100.00
49451;BME280;35336;48.400;10.886;2023-07-29T01:02:14;95927.09;;;15.74;100.00
49451;BME280;35336;48.400;10.886;2023-07-29T01:02:29;95942.28;;;15.80;100.00
49451;BME280;35336;48.400;10.886;2023-07-29T01:02:44;95942.28;;;15.80;100.00
49451;BME280;35336;48.400;10.886;2023-07-29T01:03:02;95937.13;;;15.79;100.00
49451;BME280;35336;48.400;10.886;2023-07-29T01:03:17;95931.66;;;15.73;100.00
49451;BME280;35336;48.400;10.886;2023-07-29T01:03:32;95937.94;;;15.79;100.00
49451;BME280;35336;48.400;10.886;2023-07-29T01:03:50;95940.63;;;15.79;100.00
49451;BME280;35336;48.400;10.886;2023-07-29T01:04:05;95934.09;;;15.75;100.00
49451;BME280;35336;48.400;10.886;2023-07-29T01:04:21;95944.13;;;15.80;100.00
49451;BME280;35336;48.400;10.886;2023-07-29T01:04:39;95939.00;;;15.78;100.00
49451;BME280;35336;48.400;10.886;2023-07-29T01:04:55;95938.75;;;15.80;100.00
49451;BME280;35336;48.400;10.886;2023-07-29T01:05:16;95940.13;;;15.82;100.00
49451;BME280;35336;48.400;10.886;2023-07-29T01:05:54;95937.44;;;15.82;100.00
49451;BME280;35336;48.400;10.886;2023-07-29T01:06:17;95939.59;;;15.80;100.00
49451;BME280;35336;48.400;10.886;2023-07-29T01:07:19;95940.06;;;15.77;100.00
49451;BME280;35336;48.400;10.886;2023-07-29T01:08:12;95938.41;;;15.76;100.00
49451;BME280;35336;48.400;10.886;2023-07-29T01:08:38;95935.97;;;15.75;100.00
49451;BME280;35336;48.400;10.886;2023-07-29T01:09:03;95943.22;;;15.74;100.00
49451;BME280;35336;48.400;10.886;2023-07-29T01:10:21;95937.28;;;15.72;100.00
49451;BME280;35336;48.400;10.886;2023-07-29T01:10:49;95938.31;;;15.71;100.00
49451;BME280;35336;48.400;10.886;2023-07-29T01:11:19;95938.31;;;15.71;100.00
49451;BME280;35336;48.400;10.886;2023-07-29T01:11:47;95934.00;;;15.70;100.00
49451;BME280;35336;48.400;10.886;2023-07-29T01:12:24;95942.66;;;15.72;100.00
49451;BME280;35336;48.400;10.886;2023-07-29T01:12:50;95948.03;;;15.72;100.00
49451;BME280;35336;48.400;10.886;2023-07-29T01:13:27;95943.22;;;15.74;100.00
49451;BME280;35336;48.400;10.886;2023-07-29T01:14:04;95936.22;;;15.73;100.00
49451;BME280;35336;48.400;10.886;2023-07-29T01:14:30;95936.22;;;15.73;100.00
49451;BME280;35336;48.400;10.886;2023-07-29T01:14:51;95931.91;;;15.72;100.00
49451;BME280;35336;48.400;10.886;2023-07-29T01:15:14;95932.16;;;15.70;100.00
49451;BME280;35336;48.400;10.886;2023-07-29T01:15:46;95936.69;;;15.70;100.00
49451;BME280;35336;48.400;10.886;2023-07-29T01:16:12;95930.63;;;15.63;100.00
49451;BME280;35336;48.400;10.886;2023-07-29T01:16:39;95938.78;;;15.68;100.00
49451;BME280;35336;48.400;10.886;2023-07-29T01:17:00;95930.97;;;15.66;100.00
49451;BME280;35336;48.400;10.886;2023-07-29T01:17:29;95935.53;;;15.66;100.00
49451;BME280;35336;48.400;10.886;2023-07-29T01:17:52;95941.25;;;15.69;100.00
49451;BME280;35336;48.400;10.886;2023-07-29T01:18:18;95944.16;;;15.68;100.00
49451;BME280;35336;48.400;10.886;2023-07-29T01:18:37;95950.38;;;15.68;100.00
49451;BME280;35336;48.400;10.886;2023-07-29T01:18:57;95943.34;;;15.67;100.00
49451;BME280;35336;48.400;10.886;2023-07-29T01:19:34;95934.97;;;15.64;100.00
49451;BME280;35336;48.400;10.886;2023-07-29T01:20:19;95941.25;;;15.69;100.00
49451;BME280;35336;48.400;10.886;2023-07-29T01:20:37;95937.19;;;15.67;100.00
49451;BME280;35336;48.400;10.886;2023-07-29T01:20:59;95937.97;;;15.67;100.00
49451;BME280;35336;48.400;10.886;2023-07-29T01:21:17;95946.63;;;15.69;100.00
49451;BME280;35336;48.400;10.886;2023-07-29T01:21:36;95941.72;;;15.66;100.00
49451;BME280;35336;48.400;10.886;2023-07-29T01:21:55;95938.56;;;15.69;100.00
49451;BME280;35336;48.400;10.886;2023-07-29T01:22:13;95941.47;;;15.68;100.00
49451;BME280;35336;48.400;10.886;2023-07-29T01:22:29;95944.16;;;15.68;100.00
49451;BME280;35336;48.400;10.886;2023-07-29T01:22:47;95938.78;;;15.68;100.00
49451;BME280;35336;48.400;10.886;2023-07-29T01:23:05;95931.22;;;15.65;100.00
49451;BME280;35336;48.400;10.886;2023-07-29T01:23:33;95944.75;;;15.70;100.00
49451;BME280;35336;48.400;10.886;2023-07-29T01:23:52;95948.28;;;15.70;100.00
49451;BME280;35336;48.400;10.886;2023-07-29T01:24:08;95943.44;;;15.72;100.00
49451;BME280;35336;48.400;10.886;2023-07-29T01:24:23;95934.59;;;15.72;100.00
49451;BME280;35336;48.400;10.886;2023-07-29T01:24:39;95935.38;;;15.72;100.00
49451;BME280;35336;48.400;10.886;2023-07-29T01:24:56;95939.97;;;15.72;100.00
49451;BME280;35336;48.400;10.886;2023-07-29T01:25:12;95944.50;;;15.71;100.00
49451;BME280;35336;48.400;10.886;2023-07-29T01:25:30;95925.59;;;15.66;100.00
49451;BME280;35336;48.400;10.886;2023-07-29T01:25:45;95939.97;;;15.72;100.00
49451;BME280;35336;48.400;10.886;2023-07-29T01:26:03;95936.44;;;15.71;100.00
49451;BME280;35336;48.400;10.886;2023-07-29T01:26:20;95939.97;;;15.72;100.00
49451;BME280;35336;48.400;10.886;2023-07-29T01:26:36;95932.94;;;15.71;100.00
49451;BME280;35336;48.400;10.886;2023-07-29T01:26:51;95937.53;;;15.70;100.00
49451;BME280;35336;48.400;10.886;2023-07-29T01:27:09;95934.25;;;15.68;100.00
49451;BME280;35336;48.400;10.886;2023-07-29T01:27:25;95936.69;;;15.70;100.00
49451;BME280;35336;48.400;10.886;2023-07-29T01:27:43;95926.31;;;15.62;100.00
49451;BME280;35336;48.400;10.886;2023-07-29T01:28:00;95932.94;;;15.71;100.00
49451;BME280;35336;48.400;10.886;2023-07-29T01:28:18;95920.72;;;15.63;100.00
49451;BME280;35336;48.400;10.886;2023-07-29T01:28:35;95925.84;;;15.65;100.00
49451;BME280;35336;48.400;10.886;2023-07-29T01:28:51;95932.94;;;15.71;100.00
49451;BME280;35336;48.400;10.886;2023-07-29T01:29:08;95936.94;;;15.68;100.00
49451;BME280;35336;48.400;10.886;2023-07-29T01:29:24;95942.91;;;15.70;100.00
49451;BME280;35336;48.400;10.886;2023-07-29T01:29:42;95941.00;;;15.71;100.00
49451;BME280;35336;48.400;10.886;2023-07-29T01:29:58;95923.50;;;15.68;100.00
49451;BME280;35336;48.400;10.886;2023-07-29T01:30:13;95924.31;;;15.69;100.00
49451;BME280;35336;48.400;10.886;2023-07-29T01:30:33;95933.66;;;15.66;100.00
49451;BME280;35336;48.400;10.886;2023-07-29T01:30:53;95930.25;;;15.71;100.00
49451;BME280;35336;48.400;10.886;2023-07-29T01:31:28;95938.31;;;15.71;100.00
49451;BME280;35336;48.400;10.886;2023-07-29T01:31:48;95939.13;;;15.71;100.00
49451;BME280;35336;48.400;10.886;2023-07-29T01:32:20;95921.53;;;15.64;100.00
49451;BME280;35336;48.400;10.886;2023-07-29T01:32:54;95927.00;;;15.69;100.00
49451;BME280;35336;48.400;10.886;2023-07-29T01:33:15;95933.41;;;15.68;100.00
49451;BME280;35336;48.400;10.886;2023-07-29T01:33:38;95925.84;;;15.65;100.00